Time;durP1;ratioP1;P1;durP2;ratioP2;P2;SDS_P1;SDS_P2;PMS_P1;PMS_P2;Temp;Humidity;BMP_temperature;BMP_pressure;BME280_temperature;BME280_humidity;BME280_pressure;Samples;Min_cycle;Max_cycle;Signal;HPM_P1;HPM_P2
2021/08/05 00:00:41;;;;;;;35.23;30.00;;;17.50;99.90;;;;;;5030668;28;20727;-66
2021/08/05 00:03:07;;;;;;;31.63;28.10;;;17.50;99.90;;;;;;5031630;28;20262;-66
2021/08/05 00:05:33;;;;;;;30.83;27.27;;;17.50;99.90;;;;;;5031310;28;20253;-66
2021/08/05 00:07:59;;;;;;;34.17;27.47;;;17.60;99.90;;;;;;5031461;28;20183;-66
2021/08/05 00:10:24;;;;;;;32.87;28.53;;;17.60;99.90;;;;;;5031007;28;20203;-65
2021/08/05 00:12:50;;;;;;;32.43;26.43;;;17.50;99.90;;;;;;5031690;28;20203;-65
2021/08/05 00:15:16;;;;;;;36.03;27.10;;;17.60;99.90;;;;;;5031206;28;20678;-66
2021/08/05 00:17:41;;;;;;;31.93;28.20;;;17.60;99.90;;;;;;5031585;28;20610;-66
2021/08/05 00:20:07;;;;;;;33.43;26.83;;;17.50;99.90;;;;;;5030816;28;20176;-66
2021/08/05 00:22:33;;;;;;;31.87;26.10;;;17.50;99.90;;;;;;5031499;28;20285;-66
2021/08/05 00:24:59;;;;;;;31.53;23.93;;;17.50;99.90;;;;;;5032009;28;20208;-66
2021/08/05 00:27:24;;;;;;;31.30;26.63;;;17.50;99.90;;;;;;5035304;28;20704;-65
2021/08/05 00:29:50;;;;;;;34.63;27.67;;;17.50;99.90;;;;;;5034822;28;20218;-66
2021/08/05 00:32:16;;;;;;;32.27;28.87;;;17.40;99.90;;;;;;5035204;28;20175;-66
2021/08/05 00:34:42;;;;;;;30.93;27.03;;;17.40;99.90;;;;;;5035315;28;20536;-66
2021/08/05 00:37:07;;;;;;;32.40;28.90;;;17.30;99.90;;;;;;5034583;28;20191;-66
2021/08/05 00:39:33;;;;;;;31.33;27.97;;;17.30;99.90;;;;;;5034756;28;20302;-66
2021/08/05 00:41:59;;;;;;;35.37;30.30;;;17.30;99.90;;;;;;5034979;28;20188;-66
2021/08/05 00:44:24;;;;;;;34.83;29.00;;;17.30;99.90;;;;;;5035123;28;20266;-66
2021/08/05 00:46:50;;;;;;;34.50;29.10;;;17.20;99.90;;;;;;5034909;28;20679;-66
2021/08/05 00:49:15;;;;;;;35.53;29.77;;;17.20;99.90;;;;;;5034775;28;20234;-64
2021/08/05 00:51:42;;;;;;;32.80;29.30;;;17.10;99.90;;;;;;5034869;28;20175;-65
2021/08/05 00:54:08;;;;;;;35.17;28.40;;;17.10;99.90;;;;;;5034465;28;20664;-65
2021/08/05 00:56:34;;;;;;;36.00;29.57;;;17.10;99.90;;;;;;5034919;28;20191;-66
2021/08/05 00:58:59;;;;;;;34.43;27.67;;;17.10;99.90;;;;;;5034585;28;20179;-66
2021/08/05 01:01:31;;;;;;;37.23;28.83;;;17.00;99.90;;;;;;5033558;28;20246;-66
2021/08/05 01:03:59;;;;;;;33.20;29.00;;;16.90;99.90;;;;;;5034519;28;20171;-66
2021/08/05 01:06:51;;;;;;;34.47;28.83;;;16.90;99.90;;;;;;5033334;28;20735;-65
2021/08/05 01:09:34;;;;;;;30.70;27.03;;;16.90;99.90;;;;;;5034118;28;20635;-63
2021/08/05 01:12:26;;;;;;;36.80;27.77;;;16.90;99.90;;;;;;5034458;28;20268;-64
2021/08/05 01:15:05;;;;;;;35.33;28.53;;;16.90;99.90;;;;;;5014871;28;20172;-65
2021/08/05 01:17:35;;;;;;;36.10;27.53;;;16.90;99.90;;;;;;5018377;28;20179;-66
2021/08/05 01:20:02;;;;;;;35.30;29.00;;;16.90;99.90;;;;;;5034360;28;20175;-64
2021/08/05 01:22:48;;;;;;;39.40;32.03;;;16.90;99.90;;;;;;5034225;28;20176;-66
2021/08/05 01:25:24;;;;;;;36.73;30.47;;;16.90;99.90;;;;;;5033868;28;20191;-65
2021/08/05 01:27:51;;;;;;;36.90;30.57;;;16.90;99.90;;;;;;5034149;28;20258;-67
2021/08/05 01:30:17;;;;;;;36.13;30.27;;;16.90;99.90;;;;;;5033777;28;20209;-67
2021/08/05 01:32:45;;;;;;;36.90;30.60;;;16.90;99.90;;;;;;5034369;28;20180;-66
2021/08/05 01:35:12;;;;;;;38.30;30.67;;;16.90;99.90;;;;;;5034207;28;20172;-66
2021/08/05 01:37:40;;;;;;;36.10;29.80;;;16.90;99.90;;;;;;5033101;28;20534;-67
2021/08/05 01:40:07;;;;;;;35.93;30.33;;;16.90;99.90;;;;;;5033668;28;20179;-66
2021/08/05 01:42:33;;;;;;;34.77;30.97;;;16.90;99.90;;;;;;5033542;28;20183;-67
2021/08/05 01:44:59;;;;;;;34.77;31.03;;;16.90;99.90;;;;;;5034215;28;20648;-66
2021/08/05 01:47:26;;;;;;;32.67;28.97;;;16.80;99.90;;;;;;5033757;28;20211;-67
2021/08/05 01:49:52;;;;;;;33.67;29.80;;;16.80;99.90;;;;;;5033430;28;20289;-67
2021/08/05 01:52:19;;;;;;;33.83;30.30;;;16.80;99.90;;;;;;5033599;28;20175;-66
2021/08/05 01:54:45;;;;;;;34.70;31.00;;;16.90;99.90;;;;;;5034156;28;20529;-67
2021/08/05 01:57:12;;;;;;;33.70;29.23;;;16.90;99.90;;;;;;5033418;28;20198;-66
2021/08/05 01:59:38;;;;;;;34.27;30.00;;;16.80;99.90;;;;;;5032841;28;20171;-65
2021/08/05 02:02:04;;;;;;;39.20;29.80;;;16.70;99.90;;;;;;5033507;28;20545;-63
2021/08/05 02:04:57;;;;;;;33.83;29.60;;;16.70;99.90;;;;;;5033653;28;20240;-66
2021/08/05 02:07:34;;;;;;;36.73;29.13;;;16.80;99.90;;;;;;5033401;28;20657;-67
2021/08/05 02:10:10;;;;;;;31.97;28.40;;;16.80;99.90;;;;;;5033193;28;20199;-64
2021/08/05 02:12:46;;;;;;;34.07;30.47;;;16.80;99.90;;;;;;5033388;28;20163;-66
2021/08/05 02:15:11;;;;;;;32.50;29.00;;;16.70;99.90;;;;;;5033373;28;20641;-66
2021/08/05 02:17:41;;;;;;;36.50;29.53;;;16.70;99.90;;;;;;5033227;28;20167;-67
2021/08/05 02:20:08;;;;;;;33.53;28.73;;;16.70;99.90;;;;;;5032791;28;20653;-67
2021/08/05 02:22:35;;;;;;;35.47;31.27;;;16.70;99.90;;;;;;5033108;28;20183;-66
2021/08/05 02:25:02;;;;;;;32.87;28.67;;;16.70;99.90;;;;;;5033379;28;20179;-66
2021/08/05 02:27:28;;;;;;;36.50;29.07;;;16.70;99.90;;;;;;5032841;28;20221;-67
2021/08/05 02:29:55;;;;;;;35.83;30.43;;;16.70;99.90;;;;;;5032938;28;20664;-66
2021/08/05 02:32:22;;;;;;;33.70;30.03;;;16.80;99.90;;;;;;5032754;28;20269;-66
2021/08/05 02:34:48;;;;;;;33.93;29.10;;;16.80;99.90;;;;;;5033267;28;20305;-66
2021/08/05 02:37:14;;;;;;;38.80;31.10;;;16.80;99.90;;;;;;5032116;28;20669;-65
2021/08/05 02:39:40;;;;;;;36.37;30.60;;;16.80;99.90;;;;;;5032835;28;20186;-67
2021/08/05 02:42:08;;;;;;;33.37;29.77;;;16.90;99.90;;;;;;5032521;28;20176;-67
2021/08/05 02:44:35;;;;;;;38.57;31.37;;;17.00;99.90;;;;;;5033034;28;20171;-67
2021/08/05 02:47:01;;;;;;;33.43;29.77;;;17.00;99.90;;;;;;5032058;28;20203;-66
2021/08/05 02:49:30;;;;;;;36.50;30.60;;;17.00;99.90;;;;;;5032070;28;20199;-67
2021/08/05 02:51:57;;;;;;;31.40;27.90;;;17.00;99.90;;;;;;5031060;28;20179;-67
2021/08/05 02:54:23;;;;;;;31.63;28.17;;;17.00;99.90;;;;;;5032264;28;20198;-66
2021/08/05 02:56:49;;;;;;;34.40;30.63;;;17.00;99.90;;;;;;5032863;28;20187;-65
2021/08/05 02:59:15;;;;;;;32.73;28.00;;;16.90;99.90;;;;;;5032215;28;20172;-65
2021/08/05 03:01:41;;;;;;;34.10;30.33;;;16.90;99.90;;;;;;5031216;28;20547;-65
2021/08/05 03:04:08;;;;;;;31.93;27.80;;;16.80;99.90;;;;;;5032154;28;20171;-65
2021/08/05 03:06:34;;;;;;;35.50;28.90;;;16.60;99.90;;;;;;5032261;28;20191;-66
2021/08/05 03:08:59;;;;;;;37.50;30.40;;;16.70;99.90;;;;;;5032189;28;20195;-66
2021/08/05 03:11:25;;;;;;;38.07;29.07;;;16.70;99.90;;;;;;5031975;28;20178;-65
2021/08/05 03:13:50;;;;;;;32.00;28.23;;;16.70;99.90;;;;;;5032436;28;20175;-66
2021/08/05 03:16:16;;;;;;;35.43;29.53;;;16.60;99.90;;;;;;5031882;28;20692;-66
2021/08/05 03:18:42;;;;;;;37.63;29.13;;;16.60;99.90;;;;;;5032238;28;20176;-66
2021/08/05 03:21:09;;;;;;;33.40;29.60;;;16.70;99.90;;;;;;5031613;28;20179;-65
2021/08/05 03:23:34;;;;;;;37.20;30.33;;;16.60;99.90;;;;;;5032105;28;20171;-66
2021/08/05 03:26:00;;;;;;;37.37;31.00;;;16.60;99.90;;;;;;5032174;28;20565;-66
2021/08/05 03:28:25;;;;;;;39.87;29.73;;;16.60;99.90;;;;;;5032290;28;20599;-65
2021/08/05 03:30:51;;;;;;;32.73;28.37;;;16.60;99.90;;;;;;5032065;28;20203;-67
2021/08/05 03:33:16;;;;;;;38.10;30.60;;;16.50;99.90;;;;;;5032047;28;20195;-67
2021/08/05 03:35:42;;;;;;;37.40;31.63;;;16.50;99.90;;;;;;5031778;28;20213;-67
2021/08/05 03:38:08;;;;;;;37.00;30.03;;;16.50;99.90;;;;;;5031113;28;20737;-66
2021/08/05 03:40:34;;;;;;;37.40;29.67;;;16.50;99.90;;;;;;5031390;28;20179;-66
2021/08/05 03:42:59;;;;;;;40.03;33.03;;;16.60;99.90;;;;;;5031911;28;20195;-66
2021/08/05 03:45:25;;;;;;;40.47;32.33;;;16.70;99.90;;;;;;5031557;28;20289;-67
2021/08/05 03:47:50;;;;;;;36.20;30.77;;;16.70;99.90;;;;;;5032330;28;20202;-65
2021/08/05 03:50:17;;;;;;;41.10;31.97;;;16.70;99.90;;;;;;5030673;28;20211;-67
2021/08/05 03:52:42;;;;;;;34.60;29.90;;;16.70;99.90;;;;;;5031558;28;20258;-66
2021/08/05 03:55:13;;;;;;;37.50;30.23;;;16.60;99.90;;;;;;5031645;28;20295;-66
2021/08/05 03:57:39;;;;;;;32.80;29.10;;;16.60;99.90;;;;;;5031503;28;20171;-66
2021/08/05 04:00:08;;;;;;;36.70;30.30;;;16.60;99.90;;;;;;5028945;28;20187;-67
2021/08/05 04:02:34;;;;;;;34.17;29.33;;;16.60;99.90;;;;;;5012154;28;20176;-67
2021/08/05 04:04:59;;;;;;;33.37;28.23;;;16.60;99.90;;;;;;5011799;28;20664;-66
2021/08/05 04:07:25;;;;;;;36.13;31.27;;;16.60;99.90;;;;;;5030001;28;20195;-66
2021/08/05 04:09:50;;;;;;;39.17;31.17;;;16.60;99.90;;;;;;5031382;28;20203;-67
2021/08/05 04:12:16;;;;;;;33.13;29.63;;;16.70;99.90;;;;;;5031206;28;20258;-67
2021/08/05 04:14:41;;;;;;;31.40;27.13;;;16.70;99.90;;;;;;5030403;28;20626;-66
2021/08/05 04:17:07;;;;;;;36.93;27.07;;;16.70;99.90;;;;;;5031231;28;20203;-66
2021/08/05 04:19:33;;;;;;;33.00;29.17;;;16.80;99.90;;;;;;5031478;28;20595;-67
2021/08/05 04:21:58;;;;;;;36.03;28.53;;;16.80;99.90;;;;;;5031344;28;20262;-66
2021/08/05 04:24:24;;;;;;;30.57;27.27;;;16.80;99.90;;;;;;5031170;28;20647;-66
2021/08/05 04:26:49;;;;;;;32.33;26.63;;;16.70;99.90;;;;;;5031491;28;20203;-66
2021/08/05 04:29:15;;;;;;;34.30;28.03;;;16.70;99.90;;;;;;5030992;28;20211;-66
2021/08/05 04:31:41;;;;;;;31.10;26.90;;;16.80;99.90;;;;;;5031135;28;20181;-67
2021/08/05 04:34:07;;;;;;;31.90;26.93;;;16.80;99.90;;;;;;5031220;28;20179;-66
2021/08/05 04:36:32;;;;;;;34.47;27.93;;;16.80;99.90;;;;;;5031261;28;20202;-67
2021/08/05 04:38:58;;;;;;;35.60;25.97;;;16.80;99.90;;;;;;5030547;28;20183;-66
2021/08/05 04:41:23;;;;;;;29.60;26.40;;;16.90;99.90;;;;;;5031114;28;20625;-66
2021/08/05 04:43:51;;;;;;;31.50;26.77;;;16.90;99.90;;;;;;5031226;28;20237;-66
2021/08/05 04:46:17;;;;;;;30.33;25.37;;;16.90;99.90;;;;;;5031115;28;20241;-66
2021/08/05 04:48:42;;;;;;;26.40;23.57;;;17.00;99.90;;;;;;5031055;28;20281;-65
2021/08/05 04:51:08;;;;;;;28.50;25.47;;;17.00;99.90;;;;;;5030892;28;20204;-66
2021/08/05 04:53:33;;;;;;;26.17;23.37;;;17.20;99.90;;;;;;5031062;28;20219;-67
2021/08/05 04:55:59;;;;;;;27.20;22.37;;;17.20;99.90;;;;;;5031144;28;20199;-67
2021/08/05 04:58:25;;;;;;;25.17;22.50;;;17.30;99.90;;;;;;5030886;28;20506;-67
2021/08/05 05:00:50;;;;;;;24.07;21.67;;;17.40;99.90;;;;;;5028774;28;20276;-66
2021/08/05 05:03:16;;;;;;;26.67;23.57;;;17.50;99.90;;;;;;5030933;28;20611;-66
2021/08/05 05:05:42;;;;;;;27.13;23.90;;;17.50;99.90;;;;;;5031163;28;20210;-67
2021/08/05 05:08:19;;;;;;;24.23;21.83;;;17.60;99.90;;;;;;5029590;28;20299;-67
2021/08/05 05:10:45;;;;;;;23.07;20.67;;;17.60;99.90;;;;;;5031392;28;20203;-65
2021/08/05 05:13:12;;;;;;;23.73;21.43;;;17.60;99.90;;;;;;5034531;28;20632;-66
2021/08/05 05:15:38;;;;;;;23.70;21.23;;;17.60;99.90;;;;;;5034796;28;20195;-67
2021/08/05 05:18:05;;;;;;;23.53;21.13;;;17.60;99.90;;;;;;5034175;28;20559;-67
2021/08/05 05:20:31;;;;;;;24.83;22.33;;;17.70;99.90;;;;;;5034028;28;20182;-67
2021/08/05 05:22:56;;;;;;;24.47;21.87;;;17.80;99.90;;;;;;5034678;28;20185;-67
2021/08/05 05:25:22;;;;;;;23.13;20.80;;;18.00;99.90;;;;;;5034389;28;20286;-67
2021/08/05 05:27:48;;;;;;;22.50;20.27;;;18.20;99.90;;;;;;5034220;28;20213;-66
2021/08/05 05:30:15;;;;;;;21.57;19.23;;;18.40;99.90;;;;;;5034017;28;20548;-67
2021/08/05 05:32:43;;;;;;;21.57;19.13;;;18.40;99.90;;;;;;5034020;28;20209;-67
2021/08/05 05:35:10;;;;;;;24.10;19.70;;;18.40;99.90;;;;;;5034219;28;20175;-67
2021/08/05 05:37:36;;;;;;;21.30;19.30;;;18.50;99.90;;;;;;5033400;28;20193;-67
2021/08/05 05:40:03;;;;;;;22.47;20.20;;;18.60;99.90;;;;;;5034096;28;20226;-66
2021/08/05 05:42:30;;;;;;;21.33;19.33;;;18.60;99.90;;;;;;5033738;28;20562;-67
2021/08/05 05:44:56;;;;;;;21.17;18.97;;;18.80;99.90;;;;;;5034129;28;20179;-67
2021/08/05 05:47:22;;;;;;;20.17;18.20;;;19.00;99.90;;;;;;5032506;28;20222;-66
2021/08/05 05:49:48;;;;;;;19.83;17.53;;;19.30;99.90;;;;;;5033563;28;20672;-66
2021/08/05 05:52:14;;;;;;;19.73;17.83;;;19.50;99.90;;;;;;5034105;28;20313;-66
2021/08/05 05:54:40;;;;;;;19.97;18.07;;;19.80;99.90;;;;;;5033822;28;20184;-66
2021/08/05 05:57:06;;;;;;;18.00;16.20;;;20.00;99.90;;;;;;5033643;28;20195;-65
2021/08/05 05:59:32;;;;;;;17.63;16.03;;;20.00;99.90;;;;;;5033737;28;20652;-67
2021/08/05 06:01:57;;;;;;;18.33;16.53;;;19.90;99.90;;;;;;5032499;28;20672;-67
2021/08/05 06:04:23;;;;;;;19.60;17.60;;;19.90;99.90;;;;;;5033401;28;20198;-67
2021/08/05 06:06:48;;;;;;;20.30;18.30;;;19.90;99.90;;;;;;5033583;28;20207;-67
2021/08/05 06:09:14;;;;;;;20.30;18.33;;;19.90;99.90;;;;;;5033577;28;20202;-67
2021/08/05 06:11:40;;;;;;;20.13;18.27;;;20.00;99.90;;;;;;5033232;28;20250;-67
2021/08/05 06:14:05;;;;;;;21.10;18.90;;;20.00;99.90;;;;;;5031403;28;20683;-66
2021/08/05 06:16:31;;;;;;;22.27;20.10;;;20.00;99.90;;;;;;5033368;28;20187;-66
2021/08/05 06:18:56;;;;;;;18.97;17.13;;;20.10;99.90;;;;;;5033263;28;20653;-66
2021/08/05 06:21:22;;;;;;;21.13;19.17;;;20.20;99.90;;;;;;5033185;28;20168;-66
2021/08/05 06:23:48;;;;;;;20.37;18.20;;;20.40;99.90;;;;;;5032384;28;20313;-67
2021/08/05 06:26:14;;;;;;;19.47;17.67;;;20.50;99.90;;;;;;5032948;28;20215;-66
2021/08/05 06:28:40;;;;;;;20.23;18.30;;;20.50;99.90;;;;;;5033150;28;20589;-67
2021/08/05 06:31:05;;;;;;;19.83;18.13;;;20.60;99.90;;;;;;5032746;28;20257;-67
2021/08/05 06:33:32;;;;;;;19.13;17.43;;;20.70;99.90;;;;;;5032897;28;20183;-66
2021/08/05 06:35:58;;;;;;;19.73;17.83;;;20.90;99.90;;;;;;5033176;28;20197;-67
2021/08/05 06:38:23;;;;;;;18.47;16.87;;;21.10;99.90;;;;;;5031705;28;20274;-67
2021/08/05 06:40:49;;;;;;;17.42;15.77;;;21.20;99.90;;;;;;5032511;28;20191;-66
2021/08/05 06:43:15;;;;;;;18.23;16.63;;;21.40;99.90;;;;;;5032621;28;20710;-67
2021/08/05 06:45:40;;;;;;;18.90;16.92;;;21.40;99.90;;;;;;5032942;28;20574;-67
2021/08/05 06:48:06;;;;;;;17.97;16.27;;;21.30;99.90;;;;;;5032401;28;20199;-66
2021/08/05 06:50:32;;;;;;;18.50;16.77;;;21.40;99.90;;;;;;5031068;28;20208;-66
2021/08/05 06:52:58;;;;;;;18.40;16.77;;;21.30;99.90;;;;;;5031297;28;20190;-66
2021/08/05 06:55:23;;;;;;;20.33;18.43;;;21.20;99.90;;;;;;5032590;28;20569;-67
2021/08/05 06:57:49;;;;;;;20.83;16.27;;;21.20;99.90;;;;;;5032332;28;20191;-67
2021/08/05 07:00:15;;;;;;;20.02;18.20;;;21.30;99.90;;;;;;5031296;28;20183;-65
2021/08/05 07:02:41;;;;;;;18.07;16.37;;;21.30;99.90;;;;;;5032337;28;20184;-66
2021/08/05 07:05:09;;;;;;;17.63;15.97;;;21.30;99.90;;;;;;5032469;28;20188;-66
2021/08/05 07:07:35;;;;;;;17.90;16.40;;;21.20;99.90;;;;;;5032654;28;20176;-67
2021/08/05 07:10:02;;;;;;;19.80;17.90;;;21.30;99.90;;;;;;5031859;28;20264;-66
2021/08/05 07:12:29;;;;;;;16.80;15.20;;;21.40;99.90;;;;;;5032098;28;20176;-67
2021/08/05 07:14:55;;;;;;;17.13;15.48;;;21.50;99.90;;;;;;5032405;28;20251;-67
2021/08/05 07:17:21;;;;;;;17.05;15.50;;;21.50;99.90;;;;;;5032170;28;20300;-66
2021/08/05 07:19:46;;;;;;;16.57;14.87;;;21.40;99.90;;;;;;5032035;28;20179;-65
2021/08/05 07:22:12;;;;;;;17.90;16.23;;;21.40;99.90;;;;;;5031415;28;20183;-67
2021/08/05 07:24:38;;;;;;;16.67;15.07;;;21.40;99.90;;;;;;5032216;28;20175;-67
2021/08/05 07:27:05;;;;;;;15.63;14.23;;;21.30;99.90;;;;;;5029527;28;20215;-66
2021/08/05 07:29:31;;;;;;;16.33;14.80;;;21.30;99.90;;;;;;5031679;28;20211;-67
2021/08/05 07:32:01;;;;;;;16.97;15.43;;;21.20;99.90;;;;;;5032063;28;20806;-66
2021/08/05 07:34:26;;;;;;;17.60;15.97;;;21.10;99.90;;;;;;5031841;28;20241;-67
2021/08/05 07:36:52;;;;;;;17.47;15.63;;;20.90;99.90;;;;;;5031783;28;20645;-66
2021/08/05 07:39:18;;;;;;;18.27;16.50;;;20.80;99.90;;;;;;5031570;28;20653;-66
2021/08/05 07:41:43;;;;;;;16.73;15.00;;;20.70;99.90;;;;;;5031943;28;20179;-66
2021/08/05 07:44:09;;;;;;;18.40;16.77;;;20.60;99.90;;;;;;5031558;28;20186;-65
2021/08/05 07:46:35;;;;;;;18.60;16.90;;;20.50;99.90;;;;;;5031678;28;20199;-66
2021/08/05 07:49:01;;;;;;;18.00;16.37;;;20.50;99.90;;;;;;5031549;28;20206;-67
2021/08/05 07:51:27;;;;;;;19.67;17.73;;;20.40;99.90;;;;;;5031596;28;20590;-67
2021/08/05 07:53:53;;;;;;;20.03;18.13;;;20.40;99.90;;;;;;5031751;28;20180;-67
2021/08/05 07:56:21;;;;;;;20.97;18.90;;;20.20;99.90;;;;;;5031214;28;20192;-66
2021/08/05 07:58:50;;;;;;;21.20;18.87;;;20.00;99.90;;;;;;5027797;28;20218;-66
2021/08/05 08:01:16;;;;;;;22.60;20.50;;;19.90;99.90;;;;;;5031254;28;20179;-65
2021/08/05 08:03:42;;;;;;;20.67;18.53;;;19.90;99.90;;;;;;5031446;28;20187;-66
2021/08/05 08:06:07;;;;;;;27.33;21.03;;;19.90;99.90;;;;;;5031521;28;20203;-67
2021/08/05 08:08:33;;;;;;;22.63;20.23;;;19.80;99.90;;;;;;5031172;28;20233;-66
2021/08/05 08:10:59;;;;;;;25.70;22.93;;;19.70;99.90;;;;;;5030057;28;20218;-66
2021/08/05 08:13:25;;;;;;;26.10;23.40;;;19.80;99.90;;;;;;5031617;28;20178;-67
2021/08/05 08:15:51;;;;;;;23.63;21.17;;;19.80;99.90;;;;;;5031152;28;20199;-66
2021/08/05 08:18:17;;;;;;;23.50;21.20;;;19.80;99.90;;;;;;5031484;28;20175;-67
2021/08/05 08:20:44;;;;;;;23.33;20.93;;;19.90;99.90;;;;;;5030802;28;20191;-67
2021/08/05 08:23:09;;;;;;;23.50;21.20;;;20.00;99.90;;;;;;5031494;28;20178;-67
2021/08/05 08:25:35;;;;;;;22.23;19.93;;;20.20;99.90;;;;;;5031138;28;20651;-66
2021/08/05 08:28:01;;;;;;;22.80;20.50;;;20.30;99.90;;;;;;5031441;28;20187;-66
2021/08/05 08:30:27;;;;;;;22.40;20.10;;;20.20;99.90;;;;;;5029108;28;20207;-68
2021/08/05 08:32:52;;;;;;;22.63;20.33;;;20.20;99.90;;;;;;5031162;28;20189;-66
2021/08/05 08:35:18;;;;;;;22.87;20.57;;;20.40;99.90;;;;;;5031356;28;20207;-67
2021/08/05 08:37:45;;;;;;;22.30;19.73;;;20.60;99.90;;;;;;5030526;28;20187;-67
2021/08/05 08:40:13;;;;;;;22.80;20.23;;;20.90;99.90;;;;;;5030836;28;20191;-66
2021/08/05 08:42:40;;;;;;;23.60;20.97;;;21.20;99.90;;;;;;5031216;28;20554;-67
2021/08/05 08:45:09;;;;;;;21.73;19.58;;;21.30;99.90;;;;;;5030970;28;20527;-67
2021/08/05 08:47:35;;;;;;;21.10;18.95;;;21.80;99.90;;;;;;5034642;28;20247;-67
2021/08/05 08:50:02;;;;;;;19.50;17.25;;;22.30;99.90;;;;;;5034555;28;20238;-65
2021/08/05 08:52:29;;;;;;;21.27;19.15;;;22.60;99.90;;;;;;5034913;28;20251;-67
2021/08/05 08:54:56;;;;;;;20.65;18.65;;;22.80;99.90;;;;;;5034871;28;20262;-67
2021/08/05 08:57:28;;;;;;;21.88;19.63;;;23.00;99.90;;;;;;5035075;28;20175;-67
2021/08/05 08:59:56;;;;;;;22.73;19.90;;;22.90;99.90;;;;;;5034115;28;20622;-67
2021/08/05 09:02:22;;;;;;;20.85;18.65;;;22.90;99.90;;;;;;5035026;28;20605;-67
2021/08/05 09:04:48;;;;;;;23.60;21.38;;;23.00;99.90;;;;;;5032798;28;20215;-67
2021/08/05 09:07:13;;;;;;;21.35;18.70;;;23.10;99.90;;;;;;5034705;28;20611;-66
2021/08/05 09:09:39;;;;;;;21.88;19.77;;;23.40;99.90;;;;;;5033760;28;20203;-67
2021/08/05 09:12:13;;;;;;;21.75;19.83;;;23.60;99.90;;;;;;5033295;28;20186;-67
2021/08/05 09:14:50;;;;;;;21.05;18.95;;;23.60;99.90;;;;;;5032722;28;20560;-67
2021/08/05 09:17:22;;;;;;;19.80;17.80;;;23.70;99.90;;;;;;5034454;28;20278;-66
2021/08/05 09:19:50;;;;;;;21.02;18.92;;;24.00;99.90;;;;;;5034181;28;20183;-66
2021/08/05 09:22:35;;;;;;;21.23;18.95;;;24.10;99.90;;;;;;5034349;28;20664;-66
2021/08/05 09:25:27;;;;;;;19.75;17.85;;;24.20;99.90;;;;;;5033389;28;20262;-68
2021/08/05 09:28:12;;;;;;;19.05;17.20;;;24.30;99.90;;;;;;5034420;28;20206;-66
2021/08/05 09:30:39;;;;;;;18.10;16.40;;;24.20;99.90;;;;;;5033843;28;20265;-67
2021/08/05 09:33:06;;;;;;;17.23;15.48;;;24.30;99.90;;;;;;5034236;28;20168;-67
2021/08/05 09:35:32;;;;;;;17.17;15.32;;;24.40;99.90;;;;;;5032217;28;20280;-68
2021/08/05 09:38:20;;;;;;;14.80;13.40;;;24.50;99.90;;;;;;5033490;28;20629;-68
2021/08/05 09:40:50;;;;;;;15.95;14.00;;;24.60;99.90;;;;;;5033393;28;20532;-67
2021/08/05 09:43:27;;;;;;;13.63;12.35;;;24.70;99.90;;;;;;5023536;28;20180;-68
2021/08/05 09:45:53;;;;;;;12.65;11.55;;;24.80;99.90;;;;;;5012861;28;20254;-66
2021/08/05 09:48:45;;;;;;;11.50;10.50;;;24.90;99.90;;;;;;5068209;23;20628;-65
2021/08/05 09:51:18;;;;;;;12.90;11.60;;;24.90;99.90;;;;;;5070033;28;20250;-66
2021/08/05 09:54:04;;;;;;;11.50;10.50;;;24.80;99.90;;;;;;5074056;28;20178;-66
2021/08/05 09:56:37;;;;;;;12.93;11.30;;;25.20;99.90;;;;;;5073214;28;20224;-66
2021/08/05 09:59:10;;;;;;;12.80;11.50;;;25.40;99.90;;;;;;5056169;28;20198;-66
2021/08/05 10:01:36;;;;;;;12.07;10.85;;;25.50;99.90;;;;;;5053104;28;20183;-65
2021/08/05 10:04:32;;;;;;;12.75;9.98;;;25.60;99.90;;;;;;5053599;28;20644;-66
2021/08/05 10:07:06;;;;;;;9.20;8.40;;;25.60;99.90;;;;;;5050835;28;20265;-66
2021/08/05 10:09:34;;;;;;;10.70;9.60;;;25.70;99.90;;;;;;5053312;28;20550;-66
2021/08/05 10:12:21;;;;;;;11.25;10.25;;;26.00;99.90;;;;;;5053003;28;20179;-66
2021/08/05 10:14:49;;;;;;;10.23;9.23;;;26.20;99.90;;;;;;5053436;28;20194;-66
2021/08/05 10:17:16;;;;;;;10.07;8.55;;;26.50;99.90;;;;;;5053319;28;20177;-66
2021/08/05 10:19:47;;;;;;;9.30;8.48;;;27.00;99.90;;;;;;5053443;28;20685;-66
2021/08/05 10:22:15;;;;;;;7.82;7.22;;;27.50;99.90;;;;;;5052966;28;20549;-66
2021/08/05 10:24:44;;;;;;;7.60;6.90;;;28.10;99.90;;;;;;5052288;28;20178;-66
2021/08/05 10:27:12;;;;;;;8.32;7.55;;;28.70;99.90;;;;;;5052712;28;20183;-66
2021/08/05 10:29:40;;;;;;;8.32;7.45;;;29.40;99.90;;;;;;5052911;28;20607;-65
2021/08/05 10:32:08;;;;;;;7.47;6.88;;;29.90;99.90;;;;;;5052693;28;20209;-66
2021/08/05 10:34:36;;;;;;;5.97;5.47;;;30.00;99.90;;;;;;5053034;28;20526;-66
2021/08/05 10:37:03;;;;;;;5.97;5.57;;;30.10;99.90;;;;;;5052515;28;20175;-66
2021/08/05 10:39:30;;;;;;;6.15;5.75;;;30.10;99.90;;;;;;5051390;28;20179;-66
2021/08/05 10:41:58;;;;;;;5.80;5.28;;;30.30;99.90;;;;;;5052435;28;20187;-66
2021/08/05 10:44:25;;;;;;;6.35;5.85;;;30.50;99.90;;;;;;5052946;28;20175;-66
2021/08/05 10:46:51;;;;;;;7.50;7.00;;;30.60;99.90;;;;;;5052283;28;20186;-66
2021/08/05 10:49:17;;;;;;;7.30;6.80;;;30.40;99.90;;;;;;5052236;28;20214;-66
2021/08/05 10:51:43;;;;;;;6.50;6.00;;;30.30;99.90;;;;;;5052500;28;20649;-66
2021/08/05 10:54:09;;;;;;;6.45;5.95;;;30.80;99.90;;;;;;5052795;28;20249;-66
2021/08/05 10:56:35;;;;;;;6.25;5.75;;;30.90;99.90;;;;;;5052280;28;20167;-66
2021/08/05 10:59:01;;;;;;;6.75;6.22;;;30.70;99.90;;;;;;5052508;28;20191;-66
2021/08/05 11:01:46;;;;;;;7.65;5.97;;;30.50;99.90;;;;;;5052074;28;20179;-66
2021/08/05 11:04:45;;;;;;;7.20;6.70;;;30.40;99.90;;;;;;5052407;28;20175;-66
2021/08/05 11:07:32;;;;;;;8.45;7.75;;;30.40;99.90;;;;;;5052831;28;20186;-66
2021/08/05 11:10:13;;;;;;;7.45;6.95;;;30.40;99.90;;;;;;5052982;28;20570;-66
2021/08/05 11:12:48;;;;;;;7.15;6.65;;;30.40;99.90;;;;;;5050887;28;20178;-65
2021/08/05 11:15:21;;;;;;;6.95;6.55;;;30.40;99.90;;;;;;5052882;28;20269;-66
2021/08/05 11:18:09;;;;;;;8.68;6.40;;;30.30;99.90;;;;;;5052001;28;20191;-66
2021/08/05 11:20:39;;;;;;;6.75;6.15;;;29.80;99.90;;;;;;5051960;28;20202;-65
2021/08/05 11:23:06;;;;;;;7.60;6.78;;;29.40;99.90;;;;;;5032184;28;20187;-66
2021/08/05 11:25:52;;;;;;;7.22;6.18;;;29.60;99.90;;;;;;5046148;28;20185;-66
2021/08/05 11:28:21;;;;;;;6.03;5.60;;;29.90;99.90;;;;;;5051999;28;20186;-65
2021/08/05 11:30:54;;;;;;;6.18;5.68;;;30.30;99.90;;;;;;5051300;28;20199;-66
2021/08/05 11:33:38;;;;;;;7.05;5.15;;;30.90;99.90;;;;;;5050382;28;20765;-65
2021/08/05 11:36:31;;;;;;;5.15;4.63;;;31.50;99.90;;;;;;5051535;28;20216;-66
2021/08/05 11:39:05;;;;;;;5.07;4.68;;;31.60;99.90;;;;;;5051414;28;20199;-66
2021/08/05 11:41:51;;;;;;;5.35;4.93;;;31.20;99.90;;;;;;5051485;28;20257;-65
2021/08/05 11:44:25;;;;;;;5.85;4.90;;;31.20;99.90;;;;;;5050134;28;20190;-66
2021/08/05 11:47:07;;;;;;;4.93;4.53;;;31.00;99.90;;;;;;5051663;28;20636;-66
2021/08/05 11:49:38;;;;;;;6.55;5.50;;;30.50;99.90;;;;;;5051112;28;20202;-65
2021/08/05 11:52:27;;;;;;;5.15;4.65;;;29.90;99.90;;;;;;5051421;28;20179;-66
2021/08/05 11:55:04;;;;;;;5.65;5.30;;;29.40;99.90;;;;;;5051498;28;20254;-65
2021/08/05 11:57:46;;;;;;;5.43;5.13;;;28.70;99.90;;;;;;5051423;28;20536;-65
2021/08/05 12:00:12;;;;;;;5.93;5.43;;;28.30;99.90;;;;;;5051081;28;20262;-65
2021/08/05 12:02:39;;;;;;;5.32;4.93;;;27.90;99.90;;;;;;5051572;28;20210;-65
2021/08/05 12:05:05;;;;;;;5.00;4.68;;;27.70;99.90;;;;;;5051340;28;20183;-65
2021/08/05 12:07:53;;;;;;;4.80;4.50;;;27.40;99.90;;;;;;5051313;28;20467;-65
2021/08/05 12:10:42;;;;;;;5.70;5.32;;;27.10;99.90;;;;;;5050921;28;20202;-65
2021/08/05 12:13:16;;;;;;;6.32;4.75;;;26.80;99.90;;;;;;5051098;28;20182;-65
2021/08/05 12:15:48;;;;;;;5.20;4.90;;;26.80;99.90;;;;;;5051433;28;20185;-65
2021/08/05 12:18:16;;;;;;;5.72;5.40;;;26.90;99.90;;;;;;5050986;28;20230;-65
2021/08/05 12:20:47;;;;;;;5.75;5.25;;;27.10;99.90;;;;;;5051563;28;20167;-66
2021/08/05 12:23:19;;;;;;;5.20;4.72;;;27.60;99.90;;;;;;5054779;28;20562;-66
2021/08/05 12:28:25;;;;;;;5.07;4.78;;;28.70;99.90;;;;;;5055204;28;20199;-66
2021/08/05 12:30:56;;;;;;;5.18;4.78;;;29.00;99.90;;;;;;5055003;28;20204;-65
2021/08/05 12:33:23;;;;;;;5.70;5.32;;;29.00;99.90;;;;;;5054978;28;20648;-66
2021/08/05 12:36:12;;;;;;;5.97;5.60;;;28.70;99.90;;;;;;5055368;28;20171;-66
2021/08/05 12:38:51;;;;;;;6.13;5.75;;;28.50;99.90;;;;;;5054869;28;20195;-65
2021/08/05 12:41:27;;;;;;;6.38;5.90;;;28.50;99.90;;;;;;5055112;28;20167;-66